Howe Sound: Past 24 Hour Conditions

 

Cape St.James

11:00 AM PST 23 November 2014
This table is a summary of hourly weather conditions for the past 24 hours.
Date / Time
(PST)
Wind(knots) Conditions Visibility(km) Pressure(kPa) Air tempC) Relative humidity(%) Dew pointC)
23 November 2014
11:00 W 27 gust 32 N/A N/A 101.3 9 73 5
10:00 WNW 29 N/A N/A 101.2 9 76 5
9:00 WNW 25 gust 32 N/A N/A 101.1 9 78 5
8:00 WNW 34 gust 39 N/A N/A 100.9 9 75 5
7:00 WNW 36 N/A N/A 100.8 9 76 4
6:00 WNW 37 gust 43 N/A N/A 100.6 9 74 4
5:00 W 36 gust 41 N/A N/A 100.5 9 76 5
4:00 WNW 40 gust 45 N/A N/A 100.4 9 72 4
3:00 W 39 gust 45 N/A N/A 100.3 9 76 5
2:00 W 35 gust 43 N/A N/A 100.1 8 80 5
1:00 W 38 gust 50 N/A N/A 100.0 8 83 5
0:00 W 46 N/A N/A 99.8 8 80 5
22 November 2014
23:00 WSW 38 gust 43 N/A N/A 99.8 8 85 6
22:00 WSW 15 gust 20 N/A N/A 99.8 8 87 6
21:00 SE 4 N/A N/A 99.9 7 91 5
20:00 S 26 gust 32 N/A N/A 100.1 7 88 5
19:00 SSE 19 N/A N/A 100.2 10 83 7
18:00 S 22 N/A N/A 100.3 9 84 7
17:00 SSW 19 N/A N/A 100.4 9 76 5
16:00 SW 24 N/A N/A 100.4 10 79 6
15:00 WSW 23 N/A N/A 100.4 10 75 6
14:00 SW 21 gust 26 N/A N/A 100.4 10 79 6
13:00 WSW 26 N/A N/A 100.3 10 74 5
12:00 W 21 N/A N/A 100.3 9 78 5
11:00 WSW 26 N/A N/A 100.2 10 76 6
 
Map of Pacific - South Coast marine weather areas Tsawwassen Ferry Terminal South Nomad - 46036 Sentry Shoal - 46131 South Brooks - 46132 Halibut Bank - 46146 South Moresby - 46147 South Hecate Strait - 46185 West Sea Otter - 46204 La Perouse Bank - 46206 East Dellwood - 46207 Discovery Island Esquimalt Harbour Kelp Reefs Malahat Race Rocks Lightstation Saturna Island Sheringham Point University of Victoria Victoria Gonzales Victoria Int'l Airport Ballenas Islands Campbell River Airport Comox Airport Entrance Island Fanny Island Nanaimo Airport Port Hardy Airport Sisters Islets Estevan Point Sartine Island Solander Island Tofino Airport Grief Point Powell River Airport Sechelt Cape St.James Bella Bella Airport Bella Coola Airport Cathedral Point Herbert Island Point Atkinson Sand Heads Lightstation Vancouver Harbour Vancouver Int'l Airport West Vancouver Port Alberni Howe Sound - Pam Rocks Squamish Airport